Time,TemperatureF,DewpointF,PressureIn,WindDirection,WindDirectionDegrees,WindSpeedMPH,WindSpeedGustMPH,Humidity,HourlyPrecipIn,Conditions,Clouds,dailyrainin,SoftwareType,DateUTC
2013-02-21 09:20:00,16.6,12.1,29.68,WNW,292,6.0,19.0,82,0.00,,,0.00,Weather View 32 v70,2013-02-21 14:20:00,
2013-02-21 09:22:00,16.8,15.1,29.68,NW,315,6.0,19.0,93,0.00,,,0.00,Weather View 32 v70,2013-02-21 14:22:00,
2013-02-21 09:50:00,17.1,14.7,29.69,WNW,292,12.0,19.0,90,0.00,,,0.00,Weather View 32 v70,2013-02-21 14:50:00,
2013-02-21 09:51:00,16.9,14.2,29.69,WNW,292,12.0,19.0,89,0.00,,,0.00,Weather View 32 v70,2013-02-21 14:51:00,
2013-02-21 09:56:00,16.7,11.6,29.69,WNW,292,4.0,19.0,80,0.00,,,0.00,Weather View 32 v70,2013-02-21 14:56:00,
2013-02-21 10:01:00,17.3,13.6,29.69,WSW,247,7.0,19.0,85,0.00,,,0.00,Weather View 32 v70,2013-02-21 15:01:00,
2013-02-21 10:06:00,17.1,12.8,29.69,WNW,292,8.0,19.0,83,0.00,,,0.00,Weather View 32 v70,2013-02-21 15:06:00,
2013-02-21 10:11:00,16.8,12.0,29.69,WNW,292,7.0,18.0,81,0.00,,,0.00,Weather View 32 v70,2013-02-21 15:11:00,
2013-02-21 10:16:00,16.6,13.7,29.69,WNW,292,6.0,18.0,88,0.00,,,0.00,Weather View 32 v70,2013-02-21 15:16:00,
2013-02-21 10:21:00,16.5,12.8,29.69,NW,315,2.0,19.0,85,0.00,,,0.00,Weather View 32 v70,2013-02-21 15:21:00,
2013-02-21 10:27:00,16.9,15.2,29.69,WNW,292,9.0,19.0,93,0.00,,,0.00,Weather View 32 v70,2013-02-21 15:27:00,
2013-02-21 10:32:00,17.3,14.1,29.69,WNW,292,8.0,19.0,87,0.00,,,0.00,Weather View 32 v70,2013-02-21 15:32:00,
2013-02-21 10:37:00,17.4,15.7,29.70,WNW,292,2.0,19.0,93,0.00,,,0.00,Weather View 32 v70,2013-02-21 15:37:00,
2013-02-21 10:42:00,17.1,12.0,29.70,WNW,292,6.0,19.0,80,0.00,,,0.00,Weather View 32 v70,2013-02-21 15:42:00,
2013-02-21 10:47:00,17.3,15.6,29.70,NNW,337,9.0,19.0,93,0.00,,,0.00,Weather View 32 v70,2013-02-21 15:47:00,
2013-02-21 10:52:00,17.2,14.8,29.70,WSW,247,6.0,19.0,90,0.00,,,0.00,Weather View 32 v70,2013-02-21 15:52:00,
2013-02-21 10:57:00,17.8,14.1,29.70,West,270,7.0,19.0,85,0.00,,,0.00,Weather View 32 v70,2013-02-21 15:57:00,
2013-02-21 11:02:00,18.3,13.7,29.70,West,270,12.0,19.0,82,0.00,,,0.00,Weather View 32 v70,2013-02-21 16:02:00,
2013-02-21 11:07:00,18.5,11.3,29.70,NW,315,4.0,19.0,73,0.00,,,0.00,Weather View 32 v70,2013-02-21 16:07:00,
2013-02-21 11:12:00,18.7,11.8,29.70,NNW,337,2.0,19.0,74,0.00,,,0.00,Weather View 32 v70,2013-02-21 16:12:00,
2013-02-21 11:17:00,19.0,13.0,29.71,West,270,10.0,19.0,77,0.00,,,0.00,Weather View 32 v70,2013-02-21 16:17:00,
2013-02-21 11:22:00,19.3,11.8,29.71,WNW,292,7.0,19.0,72,0.00,,,0.00,Weather View 32 v70,2013-02-21 16:22:00,
2013-02-21 11:27:00,19.4,12.2,29.71,WNW,292,8.0,19.0,73,0.00,,,0.00,Weather View 32 v70,2013-02-21 16:27:00,
2013-02-21 11:32:00,19.6,10.1,29.71,WNW,292,9.0,19.0,66,0.00,,,0.00,Weather View 32 v70,2013-02-21 16:32:00,
2013-02-21 11:37:00,19.7,13.4,29.72,West,270,1.0,19.0,76,0.00,,,0.00,Weather View 32 v70,2013-02-21 16:37:00,
2013-02-21 11:42:00,19.8,9.2,29.72,West,270,7.0,19.0,63,0.00,,,0.00,Weather View 32 v70,2013-02-21 16:42:00,
2013-02-21 11:47:00,20.0,11.1,29.71,NW,315,7.0,19.0,68,0.00,,,0.00,Weather View 32 v70,2013-02-21 16:47:00,
2013-02-21 11:52:00,20.3,12.7,29.71,WNW,292,1.0,19.0,72,0.00,,,0.00,Weather View 32 v70,2013-02-21 16:52:00,
2013-02-21 11:57:00,20.6,12.0,29.71,WNW,292,7.0,19.0,69,0.00,,,0.00,Weather View 32 v70,2013-02-21 16:57:00,
2013-02-21 12:02:00,20.6,10.0,29.71,West,270,9.0,19.0,63,0.00,,,0.00,Weather View 32 v70,2013-02-21 17:02:00,
2013-02-21 12:07:00,20.9,10.3,29.72,WNW,292,7.0,19.0,63,0.00,,,0.00,Weather View 32 v70,2013-02-21 17:07:00,
2013-02-21 12:12:00,20.8,10.9,29.72,SW,225,4.0,19.0,65,0.00,,,0.00,Weather View 32 v70,2013-02-21 17:12:00,
2013-02-21 12:17:00,20.4,10.5,29.72,WNW,292,9.0,20.0,65,0.00,,,0.00,Weather View 32 v70,2013-02-21 17:17:00,
2013-02-21 12:22:00,20.8,10.2,29.72,WNW,292,9.0,20.0,63,0.00,,,0.00,Weather View 32 v70,2013-02-21 17:22:00,
2013-02-21 12:27:00,20.8,11.9,29.72,WNW,292,8.0,20.0,68,0.00,,,0.00,Weather View 32 v70,2013-02-21 17:27:00,
2013-02-21 12:32:00,21.0,10.4,29.72,WNW,292,9.0,20.0,63,0.00,,,0.00,Weather View 32 v70,2013-02-21 17:32:00,
2013-02-21 12:37:00,20.8,11.9,29.73,WNW,292,11.0,20.0,68,0.00,,,0.00,Weather View 32 v70,2013-02-21 17:37:00,
2013-02-21 12:42:00,20.5,10.6,29.73,West,270,15.0,25.0,65,0.00,,,0.00,Weather View 32 v70,2013-02-21 17:42:00,
2013-02-21 12:47:00,20.9,13.3,29.73,WSW,247,2.0,25.0,72,0.00,,,0.00,Weather View 32 v70,2013-02-21 17:47:00,
2013-02-21 12:52:00,20.9,12.0,29.73,WNW,292,11.0,25.0,68,0.00,,,0.00,Weather View 32 v70,2013-02-21 17:52:00,
2013-02-21 12:57:00,20.8,11.6,29.74,WNW,292,2.0,25.0,67,0.00,,,0.00,Weather View 32 v70,2013-02-21 17:57:00,
2013-02-21 13:02:00,20.9,12.3,29.74,West,270,4.0,25.0,69,0.00,,,0.00,Weather View 32 v70,2013-02-21 18:02:00,
2013-02-21 13:07:00,20.6,13.0,29.74,WNW,292,9.0,25.0,72,0.00,,,0.00,Weather View 32 v70,2013-02-21 18:07:00,
2013-02-21 13:12:00,20.8,12.9,29.74,NW,315,4.0,25.0,71,0.00,,,0.00,Weather View 32 v70,2013-02-21 18:12:00,
2013-02-21 13:17:00,20.3,14.2,29.75,West,270,5.0,25.0,77,0.00,,,0.00,Weather View 32 v70,2013-02-21 18:17:00,
2013-02-21 13:22:00,19.9,15.9,29.75,WNW,292,12.0,25.0,84,0.00,,,0.00,Weather View 32 v70,2013-02-21 18:22:00,
2013-02-21 13:27:00,19.7,12.8,29.74,SW,225,7.0,25.0,74,0.00,,,0.00,Weather View 32 v70,2013-02-21 18:27:00,
2013-02-21 13:32:00,20.1,15.2,29.74,WNW,292,10.0,25.0,81,0.00,,,0.00,Weather View 32 v70,2013-02-21 18:32:00,
2013-02-21 13:37:00,20.3,14.5,29.73,SW,225,12.0,25.0,78,0.00,,,0.00,Weather View 32 v70,2013-02-21 18:37:00,
2013-02-21 13:42:00,20.3,16.8,29.74,WNW,292,3.0,17.0,86,0.00,,,0.00,Weather View 32 v70,2013-02-21 18:42:00,
2013-02-21 13:47:00,20.3,16.0,29.74,SSW,202,6.0,17.0,83,0.00,,,0.00,Weather View 32 v70,2013-02-21 18:47:00,
2013-02-21 13:52:00,20.1,12.8,29.74,WNW,292,10.0,18.0,73,0.00,,,0.00,Weather View 32 v70,2013-02-21 18:52:00,
2013-02-21 13:57:00,19.9,15.6,29.74,WSW,247,12.0,18.0,83,0.00,,,0.00,Weather View 32 v70,2013-02-21 18:57:00,
2013-02-21 14:02:00,19.6,16.9,29.74,WNW,292,9.0,22.0,89,0.00,,,0.00,Weather View 32 v70,2013-02-21 19:02:00,
2013-02-21 14:08:00,19.6,14.4,29.74,NW,315,4.0,22.0,80,0.00,,,0.00,Weather View 32 v70,2013-02-21 19:08:00,
2013-02-21 14:13:00,19.7,16.5,29.75,SSW,202,6.0,22.0,87,0.00,,,0.00,Weather View 32 v70,2013-02-21 19:13:00,
2013-02-21 14:18:00,19.8,16.3,29.75,WSW,247,9.0,22.0,86,0.00,,,0.00,Weather View 32 v70,2013-02-21 19:18:00,
2013-02-21 14:23:00,19.6,16.1,29.76,SE,135,9.0,22.0,86,0.00,,,0.00,Weather View 32 v70,2013-02-21 19:23:00,
2013-02-21 14:28:00,19.3,15.8,29.75,NW,315,7.0,22.0,86,0.01,,,0.00,Weather View 32 v70,2013-02-21 19:28:00,
2013-02-21 14:33:00,19.6,17.9,29.76,WSW,247,5.0,22.0,93,0.00,,,0.00,Weather View 32 v70,2013-02-21 19:33:00,
2013-02-21 14:38:00,19.8,17.3,29.77,West,270,5.0,22.0,90,0.00,,,0.00,Weather View 32 v70,2013-02-21 19:38:00,
2013-02-21 14:43:00,19.6,17.9,29.77,WNW,292,4.0,22.0,93,0.00,,,0.00,Weather View 32 v70,2013-02-21 19:43:00,
2013-02-21 14:48:00,19.7,16.7,29.77,West,270,5.0,22.0,88,0.00,,,0.00,Weather View 32 v70,2013-02-21 19:48:00,
2013-02-21 14:53:00,19.4,17.5,29.78,WNW,292,6.0,22.0,92,0.00,,,0.00,Weather View 32 v70,2013-02-21 19:53:00,
2013-02-21 14:58:00,19.5,17.6,29.78,WNW,292,3.0,22.0,92,0.00,,,0.00,Weather View 32 v70,2013-02-21 19:58:00,
2013-02-21 15:03:00,19.3,16.6,29.78,West,270,6.0,21.0,89,0.00,,,0.00,Weather View 32 v70,2013-02-21 20:03:00,
2013-02-21 15:08:00,19.3,17.4,29.77,WNW,292,8.0,21.0,92,0.00,,,0.00,Weather View 32 v70,2013-02-21 20:08:00,
2013-02-21 15:13:00,19.2,17.3,29.79,NW,315,4.0,21.0,92,0.00,,,0.00,Weather View 32 v70,2013-02-21 20:13:00,
2013-02-21 15:18:00,19.3,17.6,29.78,WSW,247,2.0,21.0,93,0.00,,,0.00,Weather View 32 v70,2013-02-21 20:18:00,
2013-02-21 15:23:00,19.4,17.5,29.79,West,270,6.0,21.0,92,0.00,,,0.00,Weather View 32 v70,2013-02-21 20:23:00,
2013-02-21 15:28:00,19.4,17.7,29.79,WSW,247,4.0,19.0,93,0.00,,,0.00,Weather View 32 v70,2013-02-21 20:28:00,
2013-02-21 15:33:00,19.6,17.4,29.79,WNW,292,2.0,17.0,91,0.00,,,0.00,Weather View 32 v70,2013-02-21 20:33:00,
2013-02-21 15:38:00,19.8,17.9,29.79,NNW,337,2.0,17.0,92,0.00,,,0.00,Weather View 32 v70,2013-02-21 20:38:00,
2013-02-21 15:43:00,19.9,17.4,29.80,West,270,11.0,17.0,90,0.00,,,0.00,Weather View 32 v70,2013-02-21 20:43:00,
2013-02-21 15:48:00,20.1,17.6,29.80,SSW,202,9.0,22.0,90,0.00,,,0.00,Weather View 32 v70,2013-02-21 20:48:00,
2013-02-21 15:53:00,20.1,18.2,29.80,WNW,292,10.0,22.0,92,0.00,,,0.00,Weather View 32 v70,2013-02-21 20:53:00,
2013-02-21 15:58:00,20.1,18.2,29.81,West,270,10.0,22.0,92,0.00,,,0.00,Weather View 32 v70,2013-02-21 20:58:00,
2013-02-21 16:03:00,19.9,18.2,29.81,West,270,7.0,22.0,93,0.00,,,0.00,Weather View 32 v70,2013-02-21 21:03:00,
2013-02-21 16:08:00,19.9,18.2,29.81,NW,315,5.0,22.0,93,0.00,,,0.00,Weather View 32 v70,2013-02-21 21:08:00,
2013-02-21 16:13:00,20.0,18.3,29.81,WNW,292,6.0,22.0,93,0.00,,,0.00,Weather View 32 v70,2013-02-21 21:13:00,
2013-02-21 16:18:00,20.1,18.4,29.81,WNW,292,7.0,22.0,93,0.00,,,0.00,Weather View 32 v70,2013-02-21 21:18:00,
2013-02-21 16:23:00,20.1,18.4,29.83,WNW,292,8.0,22.0,93,0.00,,,0.00,Weather View 32 v70,2013-02-21 21:23:00,
2013-02-21 16:28:00,20.0,18.3,29.83,West,270,11.0,22.0,93,0.00,,,0.00,Weather View 32 v70,2013-02-21 21:28:00,
2013-02-21 16:33:00,19.9,18.2,29.83,West,270,6.0,22.0,93,0.00,,,0.00,Weather View 32 v70,2013-02-21 21:33:00,
2013-02-21 16:38:00,19.9,18.2,29.84,WNW,292,9.0,22.0,93,0.00,,,0.00,Weather View 32 v70,2013-02-21 21:38:00,
2013-02-21 16:43:00,19.9,18.2,29.84,West,270,12.0,23.0,93,0.00,,,0.00,Weather View 32 v70,2013-02-21 21:43:00,
2013-02-21 16:48:00,19.7,18.0,29.85,WSW,247,12.0,23.0,93,0.00,,,0.00,Weather View 32 v70,2013-02-21 21:48:00,
2013-02-21 16:53:00,19.6,17.9,29.84,WNW,292,11.0,23.0,93,0.00,,,0.00,Weather View 32 v70,2013-02-21 21:53:00,
2013-02-21 16:58:00,19.6,17.9,29.84,WSW,247,6.0,24.0,93,0.00,,,0.00,Weather View 32 v70,2013-02-21 21:58:00,
2013-02-21 17:03:00,19.5,17.8,29.85,West,270,11.0,24.0,93,0.00,,,0.00,Weather View 32 v70,2013-02-21 22:03:00,
2013-02-21 17:08:00,19.4,17.7,29.85,West,270,4.0,24.0,93,0.00,,,0.00,Weather View 32 v70,2013-02-21 22:08:00,
2013-02-21 17:13:00,19.3,17.6,29.85,WNW,292,11.0,24.0,93,0.00,,,0.00,Weather View 32 v70,2013-02-21 22:13:00,
2013-02-21 17:18:00,19.4,17.7,29.85,West,270,6.0,24.0,93,0.00,,,0.00,Weather View 32 v70,2013-02-21 22:18:00,
2013-02-21 17:23:00,19.4,17.7,29.86,SSW,202,14.0,24.0,93,0.00,,,0.00,Weather View 32 v70,2013-02-21 22:23:00,
2013-02-21 17:28:00,19.4,17.7,29.86,West,270,4.0,24.0,93,0.00,,,0.00,Weather View 32 v70,2013-02-21 22:28:00,
2013-02-21 17:33:00,19.5,17.8,29.87,West,270,17.0,24.0,93,0.00,,,0.00,Weather View 32 v70,2013-02-21 22:33:00,
2013-02-21 17:38:00,19.6,17.9,29.87,WNW,292,4.0,24.0,93,0.00,,,0.00,Weather View 32 v70,2013-02-21 22:38:00,
2013-02-21 17:43:00,19.7,18.0,29.87,WSW,247,10.0,24.0,93,0.00,,,0.00,Weather View 32 v70,2013-02-21 22:43:00,
2013-02-21 17:48:00,19.6,17.9,29.88,WNW,292,9.0,24.0,93,0.00,,,0.00,Weather View 32 v70,2013-02-21 22:48:00,
2013-02-21 17:53:00,19.6,17.9,29.88,WNW,292,11.0,24.0,93,0.00,,,0.00,Weather View 32 v70,2013-02-21 22:53:00,
2013-02-21 17:58:00,19.6,17.9,29.88,SW,225,9.0,21.0,93,0.00,,,0.00,Weather View 32 v70,2013-02-21 22:58:00,
2013-02-21 18:03:00,19.5,17.8,29.88,NW,315,7.0,21.0,93,0.00,,,0.00,Weather View 32 v70,2013-02-21 23:03:00,
2013-02-21 18:08:00,19.4,17.7,29.89,WNW,292,10.0,23.0,93,0.00,,,0.00,Weather View 32 v70,2013-02-21 23:08:00,
2013-02-21 18:13:00,19.3,17.6,29.89,WNW,292,12.0,23.0,93,0.00,,,0.00,Weather View 32 v70,2013-02-21 23:13:00,
2013-02-21 18:18:00,19.2,17.5,29.90,WNW,292,12.0,23.0,93,0.00,,,0.00,Weather View 32 v70,2013-02-21 23:18:00,
2013-02-21 18:23:00,19.1,17.4,29.90,WSW,247,4.0,27.0,93,0.00,,,0.00,Weather View 32 v70,2013-02-21 23:23:00,
2013-02-21 18:28:00,19.0,17.3,29.90,WNW,292,16.0,27.0,93,0.00,,,0.00,Weather View 32 v70,2013-02-21 23:28:00,
2013-02-21 18:33:00,18.9,17.2,29.91,WNW,292,16.0,27.0,93,0.00,,,0.00,Weather View 32 v70,2013-02-21 23:33:00,
2013-02-21 18:38:00,18.9,17.2,29.92,WNW,292,16.0,27.0,93,0.00,,,0.00,Weather View 32 v70,2013-02-21 23:38:00,
2013-02-21 18:43:00,18.8,17.1,29.92,WNW,292,14.0,27.0,93,0.00,,,0.00,Weather View 32 v70,2013-02-21 23:43:00,
2013-02-21 18:48:00,18.8,17.1,29.92,WNW,292,14.0,27.0,93,0.00,,,0.00,Weather View 32 v70,2013-02-21 23:48:00,
2013-02-21 18:53:00,18.8,17.1,29.93,WNW,292,8.0,27.0,93,0.00,,,0.00,Weather View 32 v70,2013-02-21 23:53:00,
2013-02-21 18:58:00,18.6,16.9,29.93,WNW,292,10.0,27.0,93,0.00,,,0.00,Weather View 32 v70,2013-02-21 23:58:00,
2013-02-21 19:03:00,18.5,16.8,29.95,WNW,292,10.0,27.0,93,0.00,,,0.00,Weather View 32 v70,2013-02-22 00:03:00,
2013-02-21 19:08:00,18.5,16.8,29.95,WSW,247,9.0,27.0,93,0.00,,,0.00,Weather View 32 v70,2013-02-22 00:08:00,
2013-02-21 19:13:00,18.6,16.9,29.95,WNW,292,14.0,27.0,93,0.00,,,0.00,Weather View 32 v70,2013-02-22 00:13:00,
2013-02-21 19:18:00,18.6,16.9,29.95,WNW,292,11.0,27.0,93,0.00,,,0.00,Weather View 32 v70,2013-02-22 00:18:00,
2013-02-21 19:23:00,18.7,17.0,29.95,WNW,292,14.0,24.0,93,0.00,,,0.00,Weather View 32 v70,2013-02-22 00:23:00,
2013-02-21 19:28:00,18.8,17.1,29.95,WNW,292,10.0,24.0,93,0.00,,,0.00,Weather View 32 v70,2013-02-22 00:28:00,
2013-02-21 19:33:00,18.8,17.1,29.96,WNW,292,11.0,24.0,93,0.00,,,0.00,Weather View 32 v70,2013-02-22 00:33:00,
2013-02-21 19:38:00,18.7,17.0,29.96,WNW,292,7.0,24.0,93,0.00,,,0.00,Weather View 32 v70,2013-02-22 00:38:00,
2013-02-21 19:43:00,18.7,17.0,29.97,WNW,292,11.0,24.0,93,0.00,,,0.00,Weather View 32 v70,2013-02-22 00:43:00,
2013-02-21 19:48:00,18.7,17.0,29.97,WNW,292,7.0,23.0,93,0.00,,,0.00,Weather View 32 v70,2013-02-22 00:48:00,
2013-02-21 19:53:00,18.7,17.0,29.98,WNW,292,7.0,23.0,93,0.00,,,0.00,Weather View 32 v70,2013-02-22 00:53:00,
2013-02-21 19:58:00,18.5,16.8,29.98,NW,315,7.0,23.0,93,0.00,,,0.00,Weather View 32 v70,2013-02-22 00:58:00,
2013-02-21 20:03:00,18.4,16.7,29.97,WNW,292,7.0,23.0,93,0.00,,,0.00,Weather View 32 v70,2013-02-22 01:03:00,
2013-02-21 20:08:00,18.3,16.6,29.97,WNW,292,12.0,23.0,93,0.00,,,0.00,Weather View 32 v70,2013-02-22 01:08:00,
2013-02-21 20:13:00,18.4,16.7,29.97,WNW,292,6.0,23.0,93,0.00,,,0.00,Weather View 32 v70,2013-02-22 01:13:00,
2013-02-21 20:18:00,18.4,16.7,29.98,NNW,337,6.0,23.0,93,0.00,,,0.00,Weather View 32 v70,2013-02-22 01:18:00,
2013-02-21 20:23:00,18.5,16.8,29.98,WNW,292,14.0,22.0,93,0.00,,,0.00,Weather View 32 v70,2013-02-22 01:23:00,
2013-02-21 20:28:00,18.7,17.0,29.98,WNW,292,11.0,21.0,93,0.00,,,0.00,Weather View 32 v70,2013-02-22 01:28:00,
2013-02-21 20:33:00,18.8,17.1,29.99,West,270,6.0,17.0,93,0.00,,,0.00,Weather View 32 v70,2013-02-22 01:33:00,
2013-02-21 20:38:00,18.8,17.1,29.99,West,270,10.0,17.0,93,0.00,,,0.00,Weather View 32 v70,2013-02-22 01:38:00,
2013-02-21 20:43:00,18.9,17.2,29.99,WNW,292,10.0,17.0,93,0.00,,,0.00,Weather View 32 v70,2013-02-22 01:43:00,
2013-02-21 20:48:00,19.2,17.5,29.99,WNW,292,11.0,20.0,93,0.00,,,0.00,Weather View 32 v70,2013-02-22 01:48:00,
2013-02-21 20:54:00,18.9,17.2,30.00,WNW,292,9.0,20.0,93,0.00,,,0.00,Weather View 32 v70,2013-02-22 01:54:00,
2013-02-21 20:59:00,18.9,17.2,30.01,WNW,292,9.0,20.0,93,0.00,,,0.00,Weather View 32 v70,2013-02-22 01:59:00,
2013-02-21 21:04:00,18.9,17.2,30.01,WNW,292,10.0,20.0,93,0.00,,,0.00,Weather View 32 v70,2013-02-22 02:04:00,
2013-02-21 21:09:00,18.8,17.1,30.00,WNW,292,7.0,20.0,93,0.00,,,0.00,Weather View 32 v70,2013-02-22 02:09:00,
2013-02-21 21:14:00,18.9,17.2,30.00,WNW,292,6.0,20.0,93,0.00,,,0.00,Weather View 32 v70,2013-02-22 02:14:00,
2013-02-21 21:19:00,18.9,17.2,30.00,WNW,292,9.0,20.0,93,0.00,,,0.00,Weather View 32 v70,2013-02-22 02:19:00,
2013-02-21 21:24:00,18.8,17.1,30.00,WNW,292,9.0,20.0,93,0.00,,,0.00,Weather View 32 v70,2013-02-22 02:24:00,
2013-02-21 21:29:00,18.7,17.0,30.01,WNW,292,6.0,20.0,93,0.00,,,0.00,Weather View 32 v70,2013-02-22 02:29:00,
2013-02-21 21:34:00,18.7,17.0,30.01,NW,315,4.0,20.0,93,0.00,,,0.00,Weather View 32 v70,2013-02-22 02:34:00,
2013-02-21 21:39:00,18.5,16.8,30.01,WNW,292,7.0,20.0,93,0.00,,,0.00,Weather View 32 v70,2013-02-22 02:39:00,
2013-02-21 21:44:00,18.5,16.8,30.01,WNW,292,7.0,20.0,93,0.00,,,0.00,Weather View 32 v70,2013-02-22 02:44:00,
2013-02-21 21:49:00,18.5,16.8,30.01,WNW,292,5.0,17.0,93,0.00,,,0.00,Weather View 32 v70,2013-02-22 02:49:00,
2013-02-21 21:54:00,18.5,16.8,30.01,WNW,292,5.0,17.0,93,0.00,,,0.00,Weather View 32 v70,2013-02-22 02:54:00,
2013-02-21 21:59:00,18.5,16.8,30.01,WNW,292,4.0,17.0,93,0.00,,,0.00,Weather View 32 v70,2013-02-22 02:59:00,
2013-02-21 22:04:00,18.4,16.7,30.01,West,270,6.0,17.0,93,0.00,,,0.00,Weather View 32 v70,2013-02-22 03:04:00,
2013-02-21 22:09:00,18.2,16.5,30.01,South,180,2.0,17.0,93,0.00,,,0.00,Weather View 32 v70,2013-02-22 03:09:00,
2013-02-21 22:14:00,18.2,16.5,30.02,WSW,247,2.0,16.0,93,0.00,,,0.00,Weather View 32 v70,2013-02-22 03:14:00,
2013-02-21 22:19:00,18.6,16.9,30.03,WSW,247,2.0,14.0,93,0.00,,,0.00,Weather View 32 v70,2013-02-22 03:19:00,
2013-02-21 22:24:00,18.7,17.0,30.04,WNW,292,4.0,15.0,93,0.00,,,0.00,Weather View 32 v70,2013-02-22 03:24:00,
2013-02-21 22:29:00,18.7,17.0,30.05,WNW,292,5.0,15.0,93,0.00,,,0.00,Weather View 32 v70,2013-02-22 03:29:00,
2013-02-21 22:34:00,18.7,17.0,30.05,WNW,292,6.0,17.0,93,0.00,,,0.00,Weather View 32 v70,2013-02-22 03:34:00,
2013-02-21 22:39:00,18.5,16.8,30.05,WNW,292,6.0,17.0,93,0.00,,,0.00,Weather View 32 v70,2013-02-22 03:39:00,
2013-02-21 22:44:00,18.4,16.7,30.05,WNW,292,7.0,17.0,93,0.00,,,0.00,Weather View 32 v70,2013-02-22 03:44:00,
2013-02-21 22:49:00,18.3,16.6,30.05,WNW,292,6.0,17.0,93,0.00,,,0.00,Weather View 32 v70,2013-02-22 03:49:00,
2013-02-21 22:54:00,18.0,16.3,30.06,WSW,247,2.0,17.0,93,0.00,,,0.00,Weather View 32 v70,2013-02-22 03:54:00,
2013-02-21 22:59:00,17.9,16.2,30.06,WSW,247,2.0,17.0,93,0.00,,,0.00,Weather View 32 v70,2013-02-22 03:59:00,
2013-02-21 23:04:00,17.9,16.2,30.06,WSW,247,7.0,17.0,93,0.00,,,0.00,Weather View 32 v70,2013-02-22 04:04:00,
2013-02-21 23:09:00,17.8,16.1,30.06,SSW,202,4.0,17.0,93,0.00,,,0.00,Weather View 32 v70,2013-02-22 04:09:00,
2013-02-21 23:14:00,17.7,16.0,30.06,SSW,202,4.0,17.0,93,0.00,,,0.00,Weather View 32 v70,2013-02-22 04:14:00,
2013-02-21 23:20:00,17.6,15.9,30.07,WSW,247,1.0,17.0,93,0.00,,,0.00,Weather View 32 v70,2013-02-22 04:20:00,
2013-02-21 23:25:00,17.6,15.9,30.07,SSW,202,2.0,17.0,93,0.00,,,0.00,Weather View 32 v70,2013-02-22 04:25:00,
2013-02-21 23:30:00,17.5,15.8,30.07,West,270,1.0,17.0,93,0.00,,,0.00,Weather View 32 v70,2013-02-22 04:30:00,
2013-02-21 23:35:00,17.7,16.0,30.08,WSW,247,4.0,16.0,93,0.00,,,0.00,Weather View 32 v70,2013-02-22 04:35:00,
2013-02-21 23:40:00,17.7,16.0,30.07,WSW,247,2.0,16.0,93,0.00,,,0.00,Weather View 32 v70,2013-02-22 04:40:00,
2013-02-21 23:46:00,17.6,15.9,30.07,SSW,202,2.0,16.0,93,0.00,,,0.00,Weather View 32 v70,2013-02-22 04:46:00,
2013-02-21 23:51:00,17.5,15.8,30.09,WSW,247,2.0,16.0,93,0.00,,,0.00,Weather View 32 v70,2013-02-22 04:51:00,
2013-02-21 23:56:00,17.6,15.9,30.10,WSW,247,12.0,16.0,93,0.00,,,0.00,Weather View 32 v70,2013-02-22 04:56:00,